createdAt,value
2017-08-16T00:01:03.885Z,7.40
2017-08-16T00:03:31.348Z,7.20
2017-08-16T00:05:59.553Z,6.70
2017-08-16T00:08:26.992Z,6.70
2017-08-16T00:10:54.436Z,6.70
2017-08-16T00:13:21.886Z,7.30
2017-08-16T00:15:50.259Z,7.40
2017-08-16T00:18:17.676Z,7.20
2017-08-16T00:20:45.108Z,8.03
2017-08-16T00:23:12.567Z,8.00
2017-08-16T00:25:39.995Z,8.50
2017-08-16T00:28:07.556Z,7.20
2017-08-16T00:30:34.983Z,6.90
2017-08-16T00:33:02.419Z,7.00
2017-08-16T00:35:29.868Z,7.30
2017-08-16T00:37:57.303Z,7.33
2017-08-16T00:40:24.735Z,7.20
2017-08-16T00:42:52.235Z,7.10
2017-08-16T00:45:19.659Z,7.30
2017-08-16T00:47:47.096Z,6.80
2017-08-16T00:50:14.555Z,7.80
2017-08-16T00:52:42.028Z,7.90
2017-08-16T00:55:10.236Z,8.30
2017-08-16T00:57:37.707Z,8.43
2017-08-16T01:00:05.163Z,7.40
2017-08-16T01:02:32.592Z,6.97
2017-08-16T01:05:00.044Z,7.73
2017-08-16T01:07:27.710Z,7.20
2017-08-16T01:09:55.895Z,6.97
2017-08-16T01:12:23.336Z,7.70
2017-08-16T01:14:50.771Z,7.27
2017-08-16T01:17:18.214Z,7.30
2017-08-16T01:19:45.651Z,8.00
2017-08-16T01:22:13.856Z,7.30
2017-08-16T01:24:41.387Z,10.00
2017-08-16T01:27:08.874Z,11.80
2017-08-16T01:29:36.340Z,11.80
2017-08-16T01:32:04.547Z,10.37
2017-08-16T01:34:31.984Z,9.60
2017-08-16T01:36:59.455Z,10.57
2017-08-16T01:39:26.911Z,11.10
2017-08-16T01:41:54.351Z,11.23
2017-08-16T01:44:21.795Z,10.60
2017-08-16T01:46:50.017Z,9.90
2017-08-16T01:49:17.509Z,10.60
2017-08-16T01:51:44.934Z,8.97
2017-08-16T01:54:12.375Z,8.80
2017-08-16T01:56:39.792Z,7.70
2017-08-16T01:59:07.264Z,8.23
2017-08-16T02:01:34.703Z,8.10
2017-08-16T02:04:02.147Z,7.23
2017-08-16T02:06:29.563Z,7.73
2017-08-16T02:08:57.011Z,7.97
2017-08-16T02:11:24.451Z,13.80
2017-08-16T02:13:51.889Z,7.17
2017-08-16T02:16:19.337Z,5.97
2017-08-16T02:18:46.785Z,6.47
2017-08-16T02:21:14.267Z,7.53
2017-08-16T02:23:42.463Z,7.43
2017-08-16T02:26:09.924Z,6.30
2017-08-16T02:28:37.363Z,6.67
2017-08-16T02:31:04.843Z,6.90
2017-08-16T02:33:32.275Z,6.57
2017-08-16T02:35:59.848Z,6.90
2017-08-16T02:38:28.085Z,6.97
2017-08-16T02:40:55.538Z,7.20
2017-08-16T02:43:22.956Z,7.57
2017-08-16T02:45:50.398Z,7.53
2017-08-16T02:48:17.836Z,7.83
2017-08-16T02:50:45.299Z,8.50
2017-08-16T02:53:12.857Z,9.57
2017-08-16T02:55:50.959Z,8.90
2017-08-16T02:58:19.198Z,8.63
2017-08-16T03:00:46.628Z,9.73
2017-08-16T03:03:14.072Z,8.30
2017-08-16T03:05:41.533Z,7.50
2017-08-16T03:08:09.740Z,6.10
2017-08-16T03:10:37.160Z,5.73
2017-08-16T03:13:04.607Z,6.17
2017-08-16T03:15:32.044Z,6.10
2017-08-16T03:17:59.476Z,5.10
2017-08-16T03:20:26.923Z,6.00
2017-08-16T03:22:55.127Z,6.60
2017-08-16T03:25:22.564Z,6.00
2017-08-16T03:27:50.014Z,5.73
2017-08-16T03:30:17.433Z,6.00
2017-08-16T03:32:44.856Z,5.10
2017-08-16T03:35:12.302Z,5.10
2017-08-16T03:37:40.663Z,4.40
2017-08-16T03:40:08.114Z,4.83
2017-08-16T03:42:35.531Z,5.03
2017-08-16T03:45:03.747Z,6.33
2017-08-16T03:47:31.172Z,5.70
2017-08-16T03:49:58.604Z,5.30
2017-08-16T03:52:26.113Z,6.70
2017-08-16T03:54:53.523Z,6.60
2017-08-16T03:57:20.956Z,5.17
2017-08-16T03:59:48.396Z,6.30
2017-08-16T04:02:15.838Z,6.03
2017-08-16T04:04:43.272Z,6.53
2017-08-16T04:07:10.703Z,6.03
2017-08-16T04:09:38.123Z,4.60
2017-08-16T04:12:06.352Z,4.83
2017-08-16T04:14:33.789Z,4.60
2017-08-16T04:17:01.219Z,4.40
2017-08-16T04:19:28.663Z,5.30
2017-08-16T04:21:56.103Z,4.67
2017-08-16T04:24:23.534Z,4.70
2017-08-16T04:26:50.976Z,5.10
2017-08-16T04:29:18.424Z,5.30
2017-08-16T04:31:45.893Z,5.07
2017-08-16T04:34:13.329Z,4.60
2017-08-16T04:36:40.757Z,4.67
2017-08-16T04:39:08.202Z,3.60
2017-08-16T04:41:35.659Z,4.03
2017-08-16T04:44:03.097Z,4.33
2017-08-16T04:46:30.628Z,4.57
2017-08-16T04:48:58.047Z,5.87
2017-08-16T04:51:25.535Z,5.20
2017-08-16T04:53:52.964Z,5.20
2017-08-16T04:56:20.407Z,5.33
2017-08-16T04:58:47.856Z,5.40
2017-08-16T05:01:15.286Z,5.10
2017-08-16T05:03:42.716Z,4.93
2017-08-16T05:06:10.143Z,4.70
2017-08-16T05:08:37.580Z,5.33
2017-08-16T05:11:05.004Z,5.13
2017-08-16T05:13:33.232Z,5.27
2017-08-16T05:16:00.670Z,5.33
2017-08-16T05:18:28.093Z,4.67
2017-08-16T05:20:55.528Z,4.87
2017-08-16T05:23:22.974Z,4.83
2017-08-16T05:25:50.412Z,4.73
2017-08-16T05:28:17.852Z,5.37
2017-08-16T05:30:45.288Z,4.70
2017-08-16T05:33:12.719Z,4.80
2017-08-16T05:35:40.153Z,5.20
2017-08-16T05:38:08.352Z,5.27
2017-08-16T05:40:35.812Z,4.87
2017-08-16T05:43:03.271Z,5.30
2017-08-16T05:45:30.700Z,4.30
2017-08-16T05:47:58.189Z,5.30
2017-08-16T05:50:25.643Z,4.83
2017-08-16T05:52:53.084Z,5.20
2017-08-16T05:55:20.527Z,5.60
2017-08-16T05:57:47.956Z,4.17
2017-08-16T06:00:16.169Z,5.00
2017-08-16T06:02:43.625Z,5.03
2017-08-16T06:05:11.113Z,4.70
2017-08-16T06:07:38.552Z,4.30
2017-08-16T06:10:05.976Z,5.10
2017-08-16T06:12:34.167Z,5.07
2017-08-16T06:15:01.608Z,5.03
2017-08-16T06:17:29.051Z,5.03
2017-08-16T06:19:56.514Z,5.00
2017-08-16T06:22:23.948Z,5.47
2017-08-16T06:24:51.372Z,4.97
2017-08-16T06:27:18.820Z,4.83
2017-08-16T06:29:46.243Z,4.37
2017-08-16T06:32:13.693Z,4.57
2017-08-16T06:34:41.207Z,4.70
2017-08-16T06:37:08.619Z,3.77
2017-08-16T06:39:36.079Z,3.83
2017-08-16T06:42:03.512Z,4.03
2017-08-16T06:44:30.954Z,4.60
2017-08-16T06:46:58.377Z,4.73
2017-08-16T06:49:25.819Z,5.07
2017-08-16T06:51:53.259Z,9.07
2017-08-16T06:54:20.839Z,4.50
2017-08-16T06:56:48.358Z,4.50
2017-08-16T06:59:15.798Z,4.30
2017-08-16T07:01:43.224Z,5.10
2017-08-16T07:04:10.660Z,5.00
2017-08-16T07:06:38.091Z,4.73
2017-08-16T07:09:05.560Z,4.30
2017-08-16T07:11:33.013Z,4.57
2017-08-16T07:14:00.488Z,4.20
2017-08-16T07:16:27.924Z,4.47
2017-08-16T07:18:55.391Z,4.60
2017-08-16T07:21:23.624Z,4.40
2017-08-16T07:23:51.045Z,4.50
2017-08-16T07:26:18.472Z,4.83
2017-08-16T07:28:45.917Z,4.83
2017-08-16T07:31:13.336Z,4.40
2017-08-16T07:33:40.806Z,4.63
2017-08-16T07:36:08.224Z,4.73
2017-08-16T07:38:35.720Z,3.50
2017-08-16T07:41:03.177Z,4.10
2017-08-16T07:43:30.604Z,4.43
2017-08-16T07:45:58.046Z,4.17
2017-08-16T07:48:25.479Z,4.30
2017-08-16T07:50:52.912Z,3.70
2017-08-16T07:53:20.357Z,4.50
2017-08-16T07:55:47.787Z,4.47
2017-08-16T07:58:15.245Z,3.97
2017-08-16T08:00:42.676Z,3.93
2017-08-16T08:03:10.103Z,4.07
2017-08-16T08:05:37.548Z,4.20
2017-08-16T08:08:05.025Z,4.10
2017-08-16T08:10:32.485Z,4.20
2017-08-16T08:12:59.919Z,3.80
2017-08-16T08:15:27.535Z,3.40
2017-08-16T08:17:54.976Z,3.87
2017-08-16T08:20:22.405Z,3.10
2017-08-16T08:22:49.879Z,3.67
2017-08-16T08:25:17.307Z,3.30
2017-08-16T08:27:44.753Z,3.77
2017-08-16T08:30:12.211Z,3.63
2017-08-16T08:32:39.636Z,4.47
2017-08-16T08:35:07.081Z,3.50
2017-08-16T08:37:34.512Z,3.87
2017-08-16T08:40:02.375Z,2.90
2017-08-16T08:42:29.822Z,3.73
2017-08-16T08:44:57.227Z,3.20
2017-08-16T08:47:24.659Z,3.50
2017-08-16T08:49:52.088Z,2.80
2017-08-16T08:52:20.284Z,3.17
2017-08-16T08:54:47.724Z,2.40
2017-08-16T08:57:15.157Z,2.93
2017-08-16T08:59:42.646Z,2.83
2017-08-16T09:02:10.080Z,3.20
2017-08-16T09:04:37.512Z,2.57
2017-08-16T09:07:05.002Z,3.00
2017-08-16T09:09:33.191Z,2.67
2017-08-16T09:12:00.632Z,2.67
2017-08-16T09:14:28.070Z,2.83
2017-08-16T09:16:55.499Z,2.60
2017-08-16T09:19:23.734Z,2.90
2017-08-16T09:21:51.191Z,2.30
2017-08-16T09:24:19.433Z,2.60
2017-08-16T09:26:46.860Z,2.70
2017-08-16T09:29:14.298Z,2.50
2017-08-16T09:31:41.737Z,2.47
2017-08-16T09:34:09.414Z,2.30
2017-08-16T09:36:36.869Z,2.27
2017-08-16T09:39:04.296Z,2.57
2017-08-16T09:41:31.741Z,2.60
2017-08-16T09:43:59.191Z,2.70
2017-08-16T09:46:26.656Z,2.40
2017-08-16T09:48:54.871Z,2.20
2017-08-16T09:51:22.296Z,2.30
2017-08-16T09:53:49.733Z,2.37
2017-08-16T09:56:17.193Z,2.93
2017-08-16T09:58:44.599Z,2.10
2017-08-16T10:01:12.052Z,2.13
2017-08-16T10:03:39.489Z,2.73
2017-08-16T10:06:06.932Z,2.80
2017-08-16T10:08:34.950Z,2.13
2017-08-16T10:11:02.376Z,2.40
2017-08-16T10:13:29.840Z,2.73
2017-08-16T10:15:57.293Z,2.70
2017-08-16T10:18:25.478Z,2.47
2017-08-16T10:20:52.915Z,2.43
2017-08-16T10:23:20.372Z,2.60
2017-08-16T10:25:47.817Z,3.37
2017-08-16T10:28:15.253Z,2.80
2017-08-16T10:30:42.679Z,2.90
2017-08-16T10:33:10.116Z,2.40
2017-08-16T10:35:38.300Z,2.40
2017-08-16T10:38:05.753Z,2.73
2017-08-16T10:40:33.192Z,3.07
2017-08-16T10:43:00.629Z,2.40
2017-08-16T10:45:28.090Z,2.87
2017-08-16T10:47:55.531Z,2.60
2017-08-16T10:50:22.980Z,2.70
2017-08-16T10:52:50.460Z,2.70
2017-08-16T10:55:18.651Z,2.83
2017-08-16T10:57:46.092Z,2.80
2017-08-16T11:00:13.530Z,3.10
2017-08-16T11:02:41.013Z,2.90
2017-08-16T11:05:08.444Z,2.70
2017-08-16T11:07:35.880Z,2.90
2017-08-16T11:10:03.312Z,2.60
2017-08-16T11:12:30.736Z,3.10
2017-08-16T11:14:58.304Z,3.20
2017-08-16T11:17:25.740Z,2.77
2017-08-16T11:19:53.164Z,3.63
2017-08-16T11:22:20.604Z,3.00
2017-08-16T11:24:48.033Z,2.90
2017-08-16T11:27:16.265Z,3.27
2017-08-16T11:29:43.699Z,2.80
2017-08-16T11:32:11.133Z,3.10
2017-08-16T11:34:38.573Z,2.90
2017-08-16T11:37:06.000Z,3.33
2017-08-16T11:39:33.433Z,2.70
2017-08-16T11:42:00.855Z,3.30
2017-08-16T11:44:29.093Z,3.60
2017-08-16T11:46:56.534Z,3.13
2017-08-16T11:49:23.951Z,3.40
2017-08-16T11:51:51.407Z,3.60
2017-08-16T11:54:18.874Z,3.03
2017-08-16T11:56:47.116Z,4.00
2017-08-16T11:59:14.539Z,3.27
2017-08-16T12:01:41.992Z,3.40
2017-08-16T12:04:09.434Z,3.20
2017-08-16T12:06:36.865Z,3.30
2017-08-16T12:09:04.313Z,2.97
2017-08-16T12:11:31.740Z,3.57
2017-08-16T12:13:59.204Z,3.20
2017-08-16T12:16:26.636Z,3.90
2017-08-16T12:18:54.073Z,3.23
2017-08-16T12:21:21.524Z,3.87
2017-08-16T12:23:48.942Z,3.47
2017-08-16T12:26:16.424Z,3.10
2017-08-16T12:28:43.867Z,3.17
2017-08-16T12:31:12.123Z,3.83
2017-08-16T12:33:39.560Z,3.70
2017-08-16T12:36:06.988Z,6.03
2017-08-16T12:38:34.462Z,3.90
2017-08-16T12:41:01.884Z,3.57
2017-08-16T12:43:29.303Z,3.17
2017-08-16T12:45:56.743Z,3.93
2017-08-16T12:48:24.182Z,3.63
2017-08-16T12:50:51.637Z,5.40
2017-08-16T12:53:19.093Z,5.07
2017-08-16T12:55:46.517Z,3.60
2017-08-16T12:58:13.943Z,3.57
2017-08-16T13:00:41.372Z,4.37
2017-08-16T13:03:09.587Z,4.00
2017-08-16T13:05:37.026Z,4.30
2017-08-16T13:08:04.462Z,3.93
2017-08-16T13:10:31.906Z,3.80
2017-08-16T13:12:59.349Z,4.57
2017-08-16T13:15:26.819Z,3.90
2017-08-16T13:17:54.279Z,4.60
2017-08-16T13:20:21.706Z,3.50
2017-08-16T13:22:49.139Z,3.50
2017-08-16T13:25:17.350Z,4.20
2017-08-16T13:27:45.599Z,4.10
2017-08-16T13:30:13.296Z,3.93
2017-08-16T13:32:40.728Z,4.23
2017-08-16T13:35:08.165Z,3.80
2017-08-16T13:37:35.613Z,3.40
2017-08-16T13:40:03.044Z,4.83
2017-08-16T13:42:30.484Z,4.67
2017-08-16T13:44:57.908Z,4.00
2017-08-16T13:47:25.359Z,4.40
2017-08-16T13:49:52.785Z,4.03
2017-08-16T13:52:20.250Z,5.07
2017-08-16T13:54:47.674Z,4.60
2017-08-16T13:57:15.106Z,4.20
2017-08-16T13:59:43.315Z,4.67
2017-08-16T14:02:10.755Z,3.90
2017-08-16T14:04:38.217Z,4.03
2017-08-16T14:07:05.676Z,5.20
2017-08-16T14:09:33.164Z,3.97
2017-08-16T14:12:00.604Z,4.53
2017-08-16T14:14:28.063Z,4.60
2017-08-16T14:16:55.512Z,3.20
2017-08-16T14:19:22.984Z,3.90
2017-08-16T14:21:50.417Z,4.53
2017-08-16T14:24:17.876Z,3.73
2017-08-16T14:26:45.324Z,4.37
2017-08-16T14:29:12.772Z,4.50
2017-08-16T14:31:41.011Z,4.00
2017-08-16T14:34:08.447Z,4.27
2017-08-16T14:36:35.899Z,4.73
2017-08-16T14:39:03.337Z,3.70
2017-08-16T14:41:30.765Z,4.30
2017-08-16T14:43:58.200Z,4.50
2017-08-16T14:46:25.628Z,3.37
2017-08-16T14:48:53.080Z,4.93
2017-08-16T14:51:20.511Z,3.70
2017-08-16T14:53:48.091Z,3.60
2017-08-16T14:56:15.547Z,4.37
2017-08-16T14:58:42.975Z,3.83
2017-08-16T15:01:10.430Z,3.97
2017-08-16T15:03:37.851Z,3.80
2017-08-16T15:06:05.275Z,3.67
2017-08-16T15:08:32.744Z,3.67
2017-08-16T15:11:00.200Z,3.87
2017-08-16T15:13:27.648Z,4.77
2017-08-16T15:15:55.083Z,4.10
2017-08-16T15:18:22.556Z,4.53
2017-08-16T15:20:50.000Z,3.83
2017-08-16T15:23:18.258Z,4.73
2017-08-16T15:25:45.675Z,4.13
2017-08-16T15:28:13.104Z,4.57
2017-08-16T15:30:40.567Z,4.10
2017-08-16T15:33:08.032Z,4.37
2017-08-16T15:35:36.207Z,4.13
2017-08-16T15:38:03.647Z,4.20
2017-08-16T15:40:31.076Z,3.80
2017-08-16T15:42:58.526Z,5.13
2017-08-16T15:45:26.106Z,5.03
2017-08-16T15:47:53.529Z,4.33
2017-08-16T15:50:21.005Z,4.13
2017-08-16T15:52:48.420Z,5.00
2017-08-16T15:55:15.876Z,4.20
2017-08-16T15:57:43.295Z,4.00
2017-08-16T16:00:10.740Z,4.30
2017-08-16T16:02:38.182Z,4.50
2017-08-16T16:05:05.604Z,4.97
2017-08-16T16:07:33.051Z,4.70
2017-08-16T16:10:00.488Z,5.10
2017-08-16T16:12:28.375Z,6.90
2017-08-16T16:14:55.841Z,4.33
2017-08-16T16:17:23.267Z,3.70
2017-08-16T16:19:50.724Z,3.83
2017-08-16T16:22:18.156Z,5.40
2017-08-16T16:24:45.604Z,4.83
2017-08-16T16:27:13.039Z,4.77
2017-08-16T16:29:40.477Z,4.80
2017-08-16T16:32:07.928Z,4.70
2017-08-16T16:34:35.362Z,4.83
2017-08-16T16:37:03.035Z,4.17
2017-08-16T16:39:30.456Z,5.00
2017-08-16T16:41:57.916Z,4.53
2017-08-16T16:44:25.388Z,4.27
2017-08-16T16:46:52.812Z,3.50
2017-08-16T16:49:20.269Z,3.80
2017-08-16T16:51:48.499Z,3.70
2017-08-16T16:54:15.932Z,4.50
2017-08-16T16:56:43.379Z,4.47
2017-08-16T16:59:10.814Z,4.97
2017-08-16T17:01:38.267Z,4.20
2017-08-16T17:04:05.696Z,4.50
2017-08-16T17:06:33.120Z,3.60
2017-08-16T17:09:00.560Z,4.47
2017-08-16T17:11:27.994Z,4.30
2017-08-16T17:13:55.452Z,5.00
2017-08-16T17:16:22.891Z,6.03
2017-08-16T17:18:50.352Z,4.83
2017-08-16T17:21:17.780Z,4.50
2017-08-16T17:23:45.222Z,6.60
2017-08-16T17:26:12.704Z,5.57
2017-08-16T17:28:40.152Z,4.10
2017-08-16T17:31:07.596Z,5.10
2017-08-16T17:33:35.028Z,3.90
2017-08-16T17:36:02.479Z,4.50
2017-08-16T17:38:29.916Z,4.40
2017-08-16T17:40:57.373Z,5.80
2017-08-16T17:43:24.800Z,6.33
2017-08-16T17:45:52.224Z,4.03
2017-08-16T17:48:19.677Z,4.80
2017-08-16T17:50:47.115Z,5.33
2017-08-16T17:53:14.595Z,4.17
2017-08-16T17:55:42.025Z,5.53
2017-08-16T17:58:09.469Z,4.00
2017-08-16T18:00:36.895Z,5.43
2017-08-16T18:03:04.327Z,4.67
2017-08-16T18:05:31.771Z,4.60
2017-08-16T18:07:59.203Z,4.80
2017-08-16T18:10:26.651Z,4.20
2017-08-16T18:12:54.089Z,5.03
2017-08-16T18:15:21.571Z,5.30
2017-08-16T18:17:49.004Z,4.33
2017-08-16T18:20:16.424Z,4.53
2017-08-16T18:22:43.864Z,5.43
2017-08-16T18:25:11.307Z,4.40
2017-08-16T18:27:38.744Z,4.50
2017-08-16T18:30:06.225Z,5.00
2017-08-16T18:32:33.669Z,4.00
2017-08-16T18:35:01.093Z,4.93
2017-08-16T18:37:28.520Z,5.60
2017-08-16T18:39:55.943Z,4.20
2017-08-16T18:42:23.398Z,5.10
2017-08-16T18:44:50.841Z,5.30
2017-08-16T18:47:18.280Z,5.10
2017-08-16T18:49:45.708Z,4.53
2017-08-16T18:52:13.160Z,5.50
2017-08-16T18:54:40.603Z,4.77
2017-08-16T18:57:08.057Z,5.70
2017-08-16T18:59:35.499Z,6.40
2017-08-16T19:02:02.953Z,6.33
2017-08-16T19:04:30.392Z,5.53
2017-08-16T19:06:57.849Z,5.27
2017-08-16T19:09:25.267Z,5.10
2017-08-16T19:11:52.810Z,5.00
2017-08-16T19:14:20.322Z,5.90
2017-08-16T19:16:47.747Z,5.53
2017-08-16T19:19:15.968Z,5.90
2017-08-16T19:21:43.404Z,4.90
2017-08-16T19:24:10.908Z,6.30
2017-08-16T19:26:38.344Z,6.30
2017-08-16T19:29:06.547Z,5.80
2017-08-16T19:31:33.992Z,6.23
2017-08-16T19:34:01.435Z,5.60
2017-08-16T19:36:28.882Z,5.00
2017-08-16T19:38:56.323Z,4.80
2017-08-16T19:41:23.747Z,4.87
2017-08-16T19:43:51.192Z,5.17
2017-08-16T19:46:18.619Z,6.33
2017-08-16T19:48:46.059Z,6.20
2017-08-16T19:51:13.556Z,5.63
2017-08-16T19:53:40.992Z,5.10
2017-08-16T19:56:08.441Z,4.60
2017-08-16T19:58:35.875Z,4.70
2017-08-16T20:01:03.313Z,5.07
2017-08-16T20:03:30.788Z,5.97
2017-08-16T20:05:58.997Z,5.13
2017-08-16T20:08:26.434Z,5.70
2017-08-16T20:10:53.860Z,5.40
2017-08-16T20:13:21.299Z,8.47
2017-08-16T20:15:48.724Z,5.20
2017-08-16T20:18:16.916Z,5.40
2017-08-16T20:20:44.347Z,4.90
2017-08-16T20:23:11.792Z,4.27
2017-08-16T20:25:39.282Z,4.87
2017-08-16T20:28:06.705Z,5.47
2017-08-16T20:30:34.143Z,5.43
2017-08-16T20:33:01.600Z,5.30
2017-08-16T20:35:30.592Z,5.70
2017-08-16T20:37:58.053Z,5.20
2017-08-16T20:40:26.252Z,6.60
2017-08-16T20:42:53.692Z,6.50
2017-08-16T20:45:21.193Z,5.73
2017-08-16T20:47:48.616Z,5.83
2017-08-16T20:50:16.072Z,5.60
2017-08-16T20:52:43.520Z,5.70
2017-08-16T20:55:10.964Z,5.10
2017-08-16T20:57:38.395Z,5.17
2017-08-16T21:00:05.834Z,5.53
2017-08-16T21:02:35.613Z,6.00
2017-08-16T21:05:03.146Z,6.03
2017-08-16T21:07:30.572Z,6.03
2017-08-16T21:09:58.038Z,5.97
2017-08-16T21:12:25.463Z,5.20
2017-08-16T21:14:52.927Z,6.37
2017-08-16T21:17:20.363Z,6.60
2017-08-16T21:19:47.840Z,6.60
2017-08-16T21:22:15.301Z,6.33
2017-08-16T21:24:42.732Z,7.00
2017-08-16T21:27:10.201Z,5.30
2017-08-16T21:29:38.415Z,5.67
2017-08-16T21:32:06.048Z,5.57
2017-08-16T21:34:33.610Z,6.00
2017-08-16T21:37:01.186Z,6.50
2017-08-16T21:39:29.424Z,6.00
2017-08-16T21:41:56.856Z,5.77
2017-08-16T21:44:24.300Z,6.33
2017-08-16T21:46:51.721Z,6.17
2017-08-16T21:49:19.472Z,5.80
2017-08-16T21:51:46.915Z,5.17
2017-08-16T21:54:14.344Z,5.33
2017-08-16T21:56:41.816Z,5.13
2017-08-16T21:59:09.268Z,5.73
2017-08-16T22:01:36.747Z,5.77
2017-08-16T22:04:04.203Z,6.90
2017-08-16T22:06:31.643Z,14.80
2017-08-16T22:08:59.084Z,6.73
2017-08-16T22:11:26.529Z,5.63
2017-08-16T22:13:53.952Z,5.60
2017-08-16T22:16:21.405Z,5.47
2017-08-16T22:18:48.831Z,6.83
2017-08-16T22:21:17.024Z,5.30
2017-08-16T22:23:44.511Z,4.90
2017-08-16T22:26:11.944Z,5.80
2017-08-16T22:28:39.376Z,5.13
2017-08-16T22:31:06.812Z,5.40
2017-08-16T22:33:34.260Z,6.67
2017-08-16T22:36:01.711Z,5.57
2017-08-16T22:38:29.130Z,5.80
2017-08-16T22:40:56.560Z,6.23
2017-08-16T22:43:24.008Z,5.93
2017-08-16T22:45:51.447Z,6.03
2017-08-16T22:48:18.900Z,6.03
2017-08-16T22:50:46.367Z,5.73
2017-08-16T22:53:13.812Z,6.30
2017-08-16T22:55:41.262Z,6.30
2017-08-16T22:58:08.730Z,6.50
2017-08-16T23:00:36.952Z,5.50
2017-08-16T23:03:04.397Z,6.50
2017-08-16T23:05:31.847Z,6.67
2017-08-16T23:07:59.272Z,5.63
2017-08-16T23:10:26.743Z,6.33
2017-08-16T23:12:54.202Z,6.30
2017-08-16T23:15:21.631Z,7.00
2017-08-16T23:17:49.109Z,6.50
2017-08-16T23:20:16.547Z,6.50
2017-08-16T23:22:44.009Z,7.40
2017-08-16T23:25:11.443Z,6.50
2017-08-16T23:27:38.873Z,7.20
2017-08-16T23:30:07.061Z,7.47
2017-08-16T23:32:34.483Z,7.57
2017-08-16T23:35:01.984Z,7.20
2017-08-16T23:37:29.417Z,7.03
2017-08-16T23:39:56.871Z,7.80
2017-08-16T23:42:24.312Z,8.00
2017-08-16T23:44:51.748Z,10.10
2017-08-16T23:47:19.191Z,8.80
2017-08-16T23:49:46.640Z,9.57
2017-08-16T23:52:14.098Z,8.67
2017-08-16T23:54:41.521Z,9.90
2017-08-16T23:57:08.960Z,10.27
2017-08-16T23:59:36.404Z,9.57
